createdAt,value
2023-05-16T00:00:13.028Z,53.40
2023-05-16T00:02:49.022Z,53.50
2023-05-16T00:05:25.750Z,53.70
2023-05-16T00:08:01.735Z,54.20
2023-05-16T00:10:37.710Z,54.80
2023-05-16T00:13:13.708Z,54.90
2023-05-16T00:15:49.630Z,55.20
2023-05-16T00:18:26.073Z,55.20
2023-05-16T00:21:02.166Z,55.30
2023-05-16T00:23:38.662Z,55.60
2023-05-16T00:26:14.579Z,56.00
2023-05-16T00:28:50.737Z,56.50
2023-05-16T00:31:26.720Z,57.10
2023-05-16T00:34:02.591Z,57.40
2023-05-16T00:36:38.487Z,57.60
2023-05-16T00:39:14.372Z,57.80
2023-05-16T00:41:50.314Z,57.80
2023-05-16T00:44:26.506Z,57.90
2023-05-16T00:47:03.738Z,58.10
2023-05-16T00:49:39.757Z,58.40
2023-05-16T00:52:16.298Z,58.90
2023-05-16T00:54:52.382Z,59.20
2023-05-16T00:57:28.500Z,59.90
2023-05-16T01:00:10.753Z,60.30
2023-05-16T01:02:47.970Z,61.10
2023-05-16T01:05:24.185Z,61.80
2023-05-16T01:08:00.185Z,62.10
2023-05-16T01:11:05.700Z,62.90
2023-05-16T01:14:05.838Z,63.30
2023-05-16T01:17:44.379Z,63.60
2023-05-16T01:20:33.251Z,63.50
2023-05-16T01:23:57.272Z,64.50
2023-05-16T01:26:33.568Z,64.90
2023-05-16T01:29:10.218Z,65.20
2023-05-16T01:31:46.354Z,65.80
2023-05-16T01:34:22.283Z,66.00
2023-05-16T01:37:19.630Z,66.10
2023-05-16T01:40:17.614Z,66.50
2023-05-16T01:42:56.345Z,66.70
2023-05-16T01:45:41.387Z,67.20
2023-05-16T01:48:23.188Z,67.40
2023-05-16T01:51:02.323Z,67.90
2023-05-16T01:53:39.466Z,67.70
2023-05-16T01:56:17.130Z,68.10
2023-05-16T01:58:54.371Z,67.70
2023-05-16T02:01:31.409Z,67.90
2023-05-16T02:04:07.437Z,67.70
2023-05-16T02:06:44.905Z,67.60
2023-05-16T02:09:20.952Z,68.00
2023-05-16T02:11:56.855Z,68.50
2023-05-16T02:14:33.974Z,68.10
2023-05-16T02:17:10.043Z,68.30
2023-05-16T02:19:46.072Z,68.40
2023-05-16T02:22:21.955Z,68.60
2023-05-16T02:24:57.845Z,69.90
2023-05-16T02:27:33.741Z,70.00
2023-05-16T02:30:11.922Z,70.10
2023-05-16T02:32:49.091Z,70.10
2023-05-16T02:35:26.371Z,70.20
2023-05-16T02:38:02.458Z,70.00
2023-05-16T02:40:38.359Z,70.80
2023-05-16T02:43:14.614Z,70.80
2023-05-16T02:45:52.205Z,70.50
2023-05-16T02:48:28.154Z,70.40
2023-05-16T02:51:04.171Z,70.80
2023-05-16T02:53:40.203Z,70.20
2023-05-16T02:56:16.657Z,70.10
2023-05-16T02:58:55.584Z,70.00
2023-05-16T03:01:31.659Z,70.20
2023-05-16T03:04:07.739Z,69.90
2023-05-16T03:06:43.994Z,69.70
2023-05-16T03:09:20.031Z,69.30
2023-05-16T03:11:56.408Z,69.00
2023-05-16T03:14:32.285Z,69.80
2023-05-16T03:17:08.177Z,69.60
2023-05-16T03:19:44.059Z,69.70
2023-05-16T03:22:21.718Z,69.80
2023-05-16T03:24:57.588Z,70.10
2023-05-16T03:27:33.480Z,70.60
2023-05-16T03:30:09.803Z,70.70
2023-05-16T03:32:46.598Z,70.90
2023-05-16T03:35:23.191Z,71.00
2023-05-16T03:37:59.242Z,70.80
2023-05-16T03:40:35.740Z,71.60
2023-05-16T03:43:11.775Z,71.80
2023-05-16T03:45:47.800Z,72.00
2023-05-16T03:48:23.827Z,72.50
2023-05-16T03:50:59.716Z,72.90
2023-05-16T03:53:36.703Z,72.90
2023-05-16T03:56:12.610Z,73.30
2023-05-16T03:58:48.732Z,73.20
2023-05-16T04:01:24.630Z,73.50
2023-05-16T04:04:00.511Z,73.60
2023-05-16T04:06:36.657Z,73.40
2023-05-16T04:09:12.637Z,73.20
2023-05-16T04:11:48.720Z,73.10
2023-05-16T04:14:24.674Z,73.40
2023-05-16T04:17:00.860Z,73.00
2023-05-16T04:19:36.910Z,72.70
2023-05-16T04:22:12.853Z,72.80
2023-05-16T04:24:49.516Z,72.60
2023-05-16T04:27:26.841Z,72.70
2023-05-16T04:30:02.916Z,72.20
2023-05-16T04:32:38.883Z,72.20
2023-05-16T04:35:14.875Z,72.10
2023-05-16T04:37:51.115Z,72.30
2023-05-16T04:40:27.826Z,71.80
2023-05-16T04:43:03.729Z,71.60
2023-05-16T04:45:39.633Z,71.10
2023-05-16T04:48:15.778Z,71.00
2023-05-16T04:50:52.414Z,71.20
2023-05-16T04:53:28.728Z,70.60
2023-05-16T04:56:05.896Z,70.10
2023-05-16T04:58:42.926Z,69.30
2023-05-16T05:01:18.877Z,69.20
2023-05-16T05:03:55.159Z,68.80
2023-05-16T05:06:31.559Z,68.70
2023-05-16T05:09:07.530Z,67.80
2023-05-16T05:11:43.396Z,67.30
2023-05-16T05:14:19.281Z,67.30
2023-05-16T05:16:55.452Z,66.90
2023-05-16T05:19:31.431Z,66.80
2023-05-16T05:22:07.440Z,67.00
2023-05-16T05:24:43.338Z,67.50
2023-05-16T05:27:19.216Z,67.20
2023-05-16T05:29:55.096Z,66.70
2023-05-16T05:32:31.266Z,65.90
2023-05-16T05:35:07.905Z,64.80
2023-05-16T05:37:43.860Z,63.90
2023-05-16T05:40:19.755Z,63.90
2023-05-16T05:42:55.689Z,63.00
2023-05-16T05:45:31.618Z,62.80
2023-05-16T05:48:07.885Z,62.10
2023-05-16T05:50:43.894Z,62.30
2023-05-16T05:53:19.956Z,63.10
2023-05-16T05:55:55.896Z,62.40
2023-05-16T05:58:32.012Z,62.10
2023-05-16T06:01:08.078Z,61.10
2023-05-16T06:03:44.298Z,59.90
2023-05-16T06:06:20.241Z,59.60
2023-05-16T06:08:56.197Z,59.70
2023-05-16T06:11:32.144Z,59.50
2023-05-16T06:14:08.054Z,59.00
2023-05-16T06:16:44.377Z,58.40
2023-05-16T06:19:20.417Z,57.10
2023-05-16T06:21:56.326Z,56.30
2023-05-16T06:24:32.265Z,56.40
2023-05-16T06:27:08.865Z,55.60
2023-05-16T06:29:44.759Z,54.90
2023-05-16T06:32:20.824Z,54.90
2023-05-16T06:34:57.066Z,54.50
2023-05-16T06:37:32.968Z,53.10
2023-05-16T06:40:09.561Z,52.40
2023-05-16T06:42:45.487Z,51.70
2023-05-16T06:45:21.463Z,50.10
2023-05-16T06:47:57.724Z,50.00
2023-05-16T06:50:35.436Z,50.00
2023-05-16T06:53:12.129Z,50.50
2023-05-16T06:55:48.533Z,50.40
2023-05-16T06:58:24.514Z,50.50
2023-05-16T07:01:00.557Z,50.50
2023-05-16T07:03:36.654Z,51.30
2023-05-16T07:06:12.643Z,52.10
2023-05-16T07:08:48.799Z,52.00
2023-05-16T07:11:24.786Z,51.80
2023-05-16T07:14:00.763Z,51.50
2023-05-16T07:16:36.924Z,50.60
2023-05-16T07:19:13.268Z,49.00
2023-05-16T07:21:49.528Z,48.60
2023-05-16T07:24:25.506Z,49.00
2023-05-16T07:27:01.437Z,49.40
2023-05-16T07:29:38.425Z,49.40
2023-05-16T07:32:14.425Z,50.10
2023-05-16T07:34:50.354Z,49.60
2023-05-16T07:37:26.328Z,48.60
2023-05-16T07:40:03.706Z,48.10
2023-05-16T07:42:39.653Z,47.50
2023-05-16T07:45:15.691Z,47.20
2023-05-16T07:47:51.652Z,45.60
2023-05-16T07:50:27.613Z,44.30
2023-05-16T07:53:03.855Z,43.40
2023-05-16T07:55:39.806Z,42.90
2023-05-16T07:58:15.972Z,42.80
2023-05-16T08:00:51.926Z,42.20
2023-05-16T08:03:27.950Z,41.60
2023-05-16T08:06:04.322Z,41.30
2023-05-16T08:08:40.349Z,40.60
2023-05-16T08:11:16.273Z,40.60
2023-05-16T08:13:52.236Z,40.80
2023-05-16T08:16:28.195Z,40.90
2023-05-16T08:19:04.264Z,40.90
2023-05-16T08:21:40.889Z,40.50
2023-05-16T08:24:18.334Z,40.70
2023-05-16T08:26:54.335Z,40.80
2023-05-16T08:29:31.654Z,40.70
2023-05-16T08:32:09.812Z,41.00
2023-05-16T08:34:45.750Z,41.40
2023-05-16T08:37:21.739Z,41.80
2023-05-16T08:39:58.692Z,42.40
2023-05-16T08:42:35.398Z,42.60
2023-05-16T08:45:11.712Z,42.70
2023-05-16T08:47:51.747Z,43.00
2023-05-16T08:50:32.141Z,42.80
2023-05-16T08:53:09.735Z,43.30
2023-05-16T08:55:48.459Z,43.50
2023-05-16T08:58:25.589Z,43.90
2023-05-16T09:01:04.365Z,44.50
2023-05-16T09:03:41.268Z,44.90
2023-05-16T09:06:17.804Z,45.10
2023-05-16T09:08:54.565Z,45.20
2023-05-16T09:11:30.704Z,45.40
2023-05-16T09:14:06.792Z,45.00
2023-05-16T09:16:42.783Z,44.70
2023-05-16T09:19:18.796Z,45.20
2023-05-16T09:21:54.787Z,45.70
2023-05-16T09:24:31.207Z,46.20
2023-05-16T09:27:11.507Z,46.20
2023-05-16T09:29:52.051Z,46.00
2023-05-16T09:32:28.060Z,45.80
2023-05-16T09:35:04.520Z,45.90
2023-05-16T09:37:48.355Z,45.40
2023-05-16T09:40:24.693Z,45.20
2023-05-16T09:43:06.700Z,44.70
2023-05-16T09:45:48.153Z,43.70
2023-05-16T09:48:25.449Z,43.20
2023-05-16T09:51:05.864Z,42.20
2023-05-16T09:53:42.215Z,42.10
2023-05-16T09:56:18.189Z,42.00
2023-05-16T09:58:54.488Z,42.00
2023-05-16T10:01:30.845Z,42.20
2023-05-16T10:04:07.325Z,42.50
2023-05-16T10:06:44.590Z,42.80
2023-05-16T10:09:22.824Z,42.50
2023-05-16T10:12:04.077Z,42.20
2023-05-16T10:14:42.379Z,41.50
2023-05-16T10:17:18.942Z,41.30
2023-05-16T10:19:54.905Z,40.30
2023-05-16T10:22:35.218Z,39.90
2023-05-16T10:25:26.553Z,38.80
2023-05-16T10:28:04.198Z,38.50
2023-05-16T10:30:46.713Z,38.30
2023-05-16T10:33:22.912Z,37.70
2023-05-16T10:35:59.020Z,37.70
2023-05-16T10:38:35.591Z,38.10
2023-05-16T10:41:12.247Z,37.90
2023-05-16T10:43:58.000Z,38.00
2023-05-16T10:46:34.043Z,38.00
2023-05-16T10:49:27.317Z,37.90
2023-05-16T10:52:13.399Z,38.00
2023-05-16T10:54:52.492Z,38.20
2023-05-16T10:57:28.420Z,38.70
2023-05-16T11:00:10.352Z,39.30
2023-05-16T11:02:46.372Z,40.30
2023-05-16T11:05:23.489Z,41.70
2023-05-16T11:08:06.792Z,44.70
2023-05-16T11:10:42.765Z,47.40
2023-05-16T11:13:24.949Z,49.80
2023-05-16T11:16:29.746Z,51.30
2023-05-16T11:19:07.729Z,49.10
2023-05-16T11:22:21.782Z,47.40
2023-05-16T11:25:10.547Z,48.80
2023-05-16T11:27:47.936Z,49.90
2023-05-16T11:30:24.013Z,50.60
2023-05-16T11:33:00.179Z,52.00
2023-05-16T11:35:37.203Z,51.70
2023-05-16T11:38:16.523Z,53.50
2023-05-16T11:40:52.881Z,53.30
2023-05-16T11:43:28.786Z,52.90
2023-05-16T11:46:04.969Z,53.00
2023-05-16T11:48:41.350Z,52.80
2023-05-16T11:51:20.878Z,52.40
2023-05-16T11:53:57.817Z,50.20
2023-05-16T11:56:36.403Z,49.00
2023-05-16T11:59:12.484Z,48.40
2023-05-16T12:01:49.346Z,47.40
2023-05-16T12:04:25.517Z,45.30
2023-05-16T12:07:02.298Z,46.10
2023-05-16T12:09:38.370Z,46.00
2023-05-16T12:12:15.241Z,45.30
2023-05-16T12:14:51.300Z,44.90
2023-05-16T12:17:27.745Z,44.60
2023-05-16T12:20:06.706Z,45.00
2023-05-16T12:22:45.925Z,43.90
2023-05-16T12:25:32.129Z,43.30
2023-05-16T12:28:08.279Z,42.40
2023-05-16T12:30:46.748Z,42.80
2023-05-16T12:33:22.825Z,42.50
2023-05-16T12:36:01.674Z,42.20
2023-05-16T12:38:37.612Z,42.10
2023-05-16T12:41:19.337Z,41.20
2023-05-16T12:44:17.828Z,40.80
2023-05-16T12:46:55.199Z,40.10
2023-05-16T12:49:33.517Z,39.90
2023-05-16T12:52:20.170Z,40.10
2023-05-16T12:54:56.081Z,39.70
2023-05-16T12:57:33.801Z,39.60
2023-05-16T13:00:18.741Z,39.60
2023-05-16T13:02:54.866Z,39.20
2023-05-16T13:05:31.029Z,39.40
2023-05-16T13:08:07.505Z,39.20
2023-05-16T13:10:43.538Z,39.70
2023-05-16T13:13:32.598Z,40.10
2023-05-16T13:16:12.129Z,40.10
2023-05-16T13:18:48.240Z,39.90
2023-05-16T13:21:24.196Z,39.70
2023-05-16T13:24:00.180Z,39.80
2023-05-16T13:26:36.100Z,40.20
2023-05-16T13:29:12.338Z,40.30
2023-05-16T13:31:48.337Z,40.30
2023-05-16T13:34:24.269Z,40.40
2023-05-16T13:37:00.449Z,40.60
2023-05-16T13:39:36.469Z,40.40
2023-05-16T13:42:12.436Z,40.50
2023-05-16T13:44:48.631Z,40.30
2023-05-16T13:47:24.540Z,40.30
2023-05-16T13:50:04.562Z,40.70
2023-05-16T13:52:40.752Z,40.10
2023-05-16T13:55:16.717Z,39.50
2023-05-16T13:57:52.661Z,40.10
2023-05-16T14:00:43.244Z,39.90
2023-05-16T14:03:20.542Z,39.80
2023-05-16T14:05:56.588Z,39.90
2023-05-16T14:08:32.500Z,39.80
2023-05-16T14:11:08.421Z,39.80
2023-05-16T14:13:44.344Z,39.90
2023-05-16T14:16:20.728Z,40.00
2023-05-16T14:18:56.837Z,40.30
2023-05-16T14:21:34.160Z,40.10
2023-05-16T14:24:10.202Z,40.00
2023-05-16T14:26:47.158Z,40.00
2023-05-16T14:29:23.169Z,39.80
2023-05-16T14:31:59.135Z,39.10
2023-05-16T14:34:35.179Z,39.00
2023-05-16T14:37:11.466Z,38.60
2023-05-16T14:39:49.657Z,38.30
2023-05-16T14:42:25.904Z,37.80
2023-05-16T14:45:02.319Z,38.10
2023-05-16T14:47:38.319Z,37.90
2023-05-16T14:50:14.401Z,37.50
2023-05-16T14:52:50.324Z,37.10
2023-05-16T14:55:27.041Z,36.70
2023-05-16T14:58:03.783Z,36.00
2023-05-16T15:00:39.842Z,35.70
2023-05-16T15:03:19.785Z,35.40
2023-05-16T15:05:57.881Z,35.00
2023-05-16T15:08:34.986Z,35.10
2023-05-16T15:11:11.312Z,34.70
2023-05-16T15:13:48.493Z,34.70
2023-05-16T15:16:24.485Z,34.50
2023-05-16T15:19:00.697Z,34.20
2023-05-16T15:21:36.936Z,34.40
2023-05-16T15:24:13.148Z,34.10
2023-05-16T15:26:50.220Z,34.20
2023-05-16T15:29:26.326Z,34.20
2023-05-16T15:32:06.667Z,33.80
2023-05-16T15:34:42.793Z,34.00
2023-05-16T15:37:18.870Z,34.10
2023-05-16T15:39:54.870Z,34.20
2023-05-16T15:42:31.082Z,34.10
2023-05-16T15:45:08.270Z,33.70
2023-05-16T15:47:45.273Z,33.60
2023-05-16T15:50:22.253Z,33.50
2023-05-16T15:52:58.395Z,33.60
2023-05-16T15:55:34.348Z,33.60
2023-05-16T15:58:10.262Z,33.50
2023-05-16T16:00:46.216Z,33.50
2023-05-16T16:03:22.495Z,33.10
2023-05-16T16:05:58.596Z,33.00
2023-05-16T16:08:34.544Z,33.30
2023-05-16T16:11:10.553Z,32.70
2023-05-16T16:13:46.467Z,32.80
2023-05-16T16:16:22.478Z,32.80
2023-05-16T16:18:58.482Z,32.80
2023-05-16T16:21:34.515Z,32.90
2023-05-16T16:24:10.562Z,32.70
2023-05-16T16:26:46.485Z,33.00
2023-05-16T16:29:23.070Z,33.00
2023-05-16T16:31:59.216Z,33.00
2023-05-16T16:34:35.188Z,32.60
2023-05-16T16:37:11.575Z,32.30
2023-05-16T16:39:47.616Z,32.00
2023-05-16T16:42:25.465Z,32.10
2023-05-16T16:45:01.358Z,32.20
2023-05-16T16:47:39.562Z,31.90
2023-05-16T16:50:15.518Z,31.80
2023-05-16T16:52:51.436Z,31.30
2023-05-16T16:55:27.596Z,31.10
2023-05-16T16:58:03.689Z,31.40
2023-05-16T17:00:40.894Z,30.90
2023-05-16T17:03:17.174Z,30.80
2023-05-16T17:05:53.468Z,31.10
2023-05-16T17:08:29.388Z,31.00
2023-05-16T17:11:05.772Z,30.80
2023-05-16T17:13:41.998Z,30.80
2023-05-16T17:16:18.874Z,30.70
2023-05-16T17:18:56.218Z,30.70
2023-05-16T17:21:34.554Z,30.70
2023-05-16T17:24:10.896Z,30.80
2023-05-16T17:26:47.288Z,30.80
2023-05-16T17:29:23.932Z,30.40
2023-05-16T17:32:00.133Z,30.50
2023-05-16T17:34:36.043Z,30.20
2023-05-16T17:37:12.111Z,30.20
2023-05-16T17:39:48.042Z,30.10
2023-05-16T17:42:23.942Z,30.20
2023-05-16T17:45:03.994Z,30.10
2023-05-16T17:47:40.315Z,30.20
2023-05-16T17:50:16.469Z,30.00
2023-05-16T17:52:52.412Z,29.70
2023-05-16T17:55:28.878Z,29.80
2023-05-16T17:58:06.801Z,29.80
2023-05-16T18:00:43.763Z,29.40
2023-05-16T18:03:19.978Z,29.30
2023-05-16T18:05:56.567Z,29.50
2023-05-16T18:08:32.505Z,29.40
2023-05-16T18:11:11.696Z,29.40
2023-05-16T18:13:48.550Z,29.30
2023-05-16T18:16:24.481Z,29.10
2023-05-16T18:19:02.316Z,29.20
2023-05-16T18:21:39.225Z,29.40
2023-05-16T18:24:16.010Z,29.10
2023-05-16T18:26:52.082Z,28.80
2023-05-16T18:29:30.339Z,28.40
2023-05-16T18:32:06.754Z,28.30
2023-05-16T18:34:42.683Z,28.40
2023-05-16T18:37:18.639Z,28.20
2023-05-16T18:39:54.576Z,28.20
2023-05-16T18:42:30.495Z,28.40
2023-05-16T18:45:08.115Z,28.50
2023-05-16T18:47:44.088Z,28.40
2023-05-16T18:50:20.085Z,28.50
2023-05-16T18:52:57.689Z,28.20
2023-05-16T18:55:33.821Z,28.20
2023-05-16T18:58:09.756Z,28.30
2023-05-16T19:00:45.761Z,28.30
2023-05-16T19:03:21.878Z,28.40
2023-05-16T19:05:58.166Z,28.50
2023-05-16T19:08:47.081Z,28.50
2023-05-16T19:11:24.159Z,28.60
2023-05-16T19:14:00.919Z,28.60
2023-05-16T19:16:36.999Z,28.60
2023-05-16T19:19:14.077Z,28.50
2023-05-16T19:21:50.359Z,28.40
2023-05-16T19:24:26.388Z,28.50
2023-05-16T19:27:02.303Z,28.70
2023-05-16T19:29:38.452Z,28.70
2023-05-16T19:32:14.432Z,28.50
2023-05-16T19:34:50.416Z,28.70
2023-05-16T19:37:27.036Z,28.60
2023-05-16T19:40:05.298Z,28.70
2023-05-16T19:42:42.682Z,28.60
2023-05-16T19:45:18.819Z,28.50
2023-05-16T19:47:54.966Z,28.60
2023-05-16T19:50:31.093Z,28.60
2023-05-16T19:53:07.039Z,28.50
2023-05-16T19:55:46.673Z,28.60
2023-05-16T19:58:23.000Z,28.80
2023-05-16T20:00:58.979Z,28.80
2023-05-16T20:03:35.416Z,28.80
2023-05-16T20:06:11.419Z,28.80
2023-05-16T20:08:47.534Z,28.90
2023-05-16T20:11:24.071Z,28.90
2023-05-16T20:14:00.287Z,28.90
2023-05-16T20:16:36.432Z,29.00
2023-05-16T20:19:13.679Z,29.00
2023-05-16T20:21:49.702Z,29.00
2023-05-16T20:24:26.007Z,29.00
2023-05-16T20:27:02.096Z,29.00
2023-05-16T20:29:38.149Z,29.20
2023-05-16T20:32:14.151Z,29.10
2023-05-16T20:34:50.077Z,29.10
2023-05-16T20:37:26.762Z,29.10
2023-05-16T20:40:03.454Z,29.10
2023-05-16T20:42:40.286Z,29.30
2023-05-16T20:45:16.220Z,29.20
2023-05-16T20:47:52.459Z,29.30
2023-05-16T20:50:28.471Z,29.20
2023-05-16T20:53:04.932Z,29.30
2023-05-16T20:55:40.831Z,29.20
2023-05-16T20:58:16.762Z,29.20
2023-05-16T21:00:52.766Z,29.20
2023-05-16T21:03:28.676Z,29.30
2023-05-16T21:06:04.862Z,29.30
2023-05-16T21:08:40.838Z,29.30
2023-05-16T21:11:16.735Z,29.30
2023-05-16T21:13:52.677Z,29.40
2023-05-16T21:16:31.801Z,29.80
2023-05-16T21:19:07.806Z,29.80
2023-05-16T21:21:43.827Z,29.60
2023-05-16T21:24:19.837Z,29.50
2023-05-16T21:26:56.563Z,29.60
2023-05-16T21:29:32.557Z,29.70
2023-05-16T21:32:09.219Z,29.80
2023-05-16T21:34:45.148Z,29.90
2023-05-16T21:37:21.565Z,29.90
2023-05-16T21:39:57.568Z,30.00
2023-05-16T21:42:33.507Z,30.00
2023-05-16T21:45:15.705Z,30.10
2023-05-16T21:47:51.677Z,30.10
2023-05-16T21:50:27.859Z,30.30
2023-05-16T21:53:03.783Z,30.20
2023-05-16T21:55:39.691Z,30.20
2023-05-16T21:58:15.611Z,30.20
2023-05-16T22:00:51.526Z,30.10
2023-05-16T22:03:27.496Z,30.30
2023-05-16T22:06:03.482Z,30.20
2023-05-16T22:08:39.394Z,30.50
2023-05-16T22:11:15.326Z,30.40
2023-05-16T22:13:51.409Z,30.50
2023-05-16T22:16:27.382Z,30.50
2023-05-16T22:19:03.424Z,30.40
2023-05-16T22:21:39.511Z,30.60
2023-05-16T22:24:15.532Z,30.70
2023-05-16T22:26:51.454Z,31.00
2023-05-16T22:29:27.362Z,30.70
2023-05-16T22:32:10.111Z,30.70
2023-05-16T22:34:46.049Z,30.70
2023-05-16T22:37:21.952Z,30.60
2023-05-16T22:39:57.880Z,30.80
2023-05-16T22:42:33.821Z,30.80
2023-05-16T22:45:10.177Z,31.00
2023-05-16T22:47:46.513Z,30.90
2023-05-16T22:50:22.489Z,30.80
2023-05-16T22:52:58.431Z,30.90
2023-05-16T22:55:34.952Z,30.90
2023-05-16T22:58:10.891Z,30.90
2023-05-16T23:00:46.866Z,31.00
2023-05-16T23:03:22.997Z,31.90
2023-05-16T23:05:59.077Z,32.00
2023-05-16T23:08:35.130Z,32.00
2023-05-16T23:11:11.812Z,32.10
2023-05-16T23:13:47.706Z,32.00
2023-05-16T23:16:23.595Z,32.00
2023-05-16T23:18:59.566Z,32.10
2023-05-16T23:21:36.134Z,32.20
2023-05-16T23:24:12.086Z,32.20
2023-05-16T23:26:48.013Z,32.20
2023-05-16T23:29:24.109Z,32.20
2023-05-16T23:32:00.076Z,32.10
2023-05-16T23:34:36.024Z,32.20
2023-05-16T23:37:11.948Z,32.20
2023-05-16T23:39:47.911Z,32.30
2023-05-16T23:42:23.845Z,32.40
2023-05-16T23:45:00.137Z,32.50
2023-05-16T23:47:36.199Z,32.60
2023-05-16T23:50:12.195Z,32.60
2023-05-16T23:52:48.096Z,32.60
2023-05-16T23:55:24.331Z,32.70
2023-05-16T23:58:00.301Z,32.70
